createdAt,value
2022-11-29T00:02:06.910Z,86.19
2022-11-29T00:04:39.408Z,87.40
2022-11-29T00:07:09.613Z,87.53
2022-11-29T00:09:39.383Z,86.20
2022-11-29T00:12:16.134Z,87.67
2022-11-29T00:14:47.177Z,87.72
2022-11-29T00:17:17.844Z,87.83
2022-11-29T00:19:48.209Z,87.98
2022-11-29T00:22:18.463Z,87.95
2022-11-29T00:24:48.770Z,88.13
2022-11-29T00:27:19.569Z,88.11
2022-11-29T00:29:49.822Z,88.26
2022-11-29T00:32:20.066Z,88.46
2022-11-29T00:34:50.491Z,88.59
2022-11-29T00:37:20.518Z,88.38
2022-11-29T00:39:50.262Z,87.72
2022-11-29T00:42:21.799Z,88.38
2022-11-29T00:44:51.983Z,88.59
2022-11-29T00:47:22.099Z,87.95
2022-11-29T00:49:52.263Z,88.70
2022-11-29T00:52:22.564Z,88.71
2022-11-29T00:54:52.736Z,88.65
2022-11-29T00:57:22.861Z,89.02
2022-11-29T00:59:53.126Z,89.04
2022-11-29T01:02:22.923Z,88.06
2022-11-29T01:04:53.062Z,88.64
2022-11-29T01:07:22.989Z,88.03
2022-11-29T01:09:52.945Z,88.36
2022-11-29T01:12:22.710Z,87.93
2022-11-29T01:14:52.607Z,88.71
2022-11-29T01:17:23.331Z,88.55
2022-11-29T01:19:53.429Z,88.71
2022-11-29T01:22:23.688Z,88.41
2022-11-29T01:24:53.889Z,88.42
2022-11-29T01:27:24.343Z,88.31
2022-11-29T01:29:54.624Z,88.27
2022-11-29T01:32:25.034Z,88.38
2022-11-29T01:34:55.311Z,88.07
2022-11-29T01:37:25.077Z,87.46
2022-11-29T01:39:55.221Z,88.18
2022-11-29T01:42:26.038Z,87.92
2022-11-29T01:45:24.907Z,87.82
2022-11-29T01:47:58.742Z,87.90
2022-11-29T01:50:28.984Z,87.61
2022-11-29T01:52:59.510Z,86.94
2022-11-29T01:55:30.001Z,87.83
2022-11-29T01:58:02.237Z,87.73
2022-11-29T02:00:32.580Z,87.69
2022-11-29T02:03:17.622Z,87.77
2022-11-29T02:05:52.113Z,88.00
2022-11-29T02:08:37.991Z,88.08
2022-11-29T02:11:34.095Z,88.02
2022-11-29T02:14:07.402Z,88.60
2022-11-29T02:16:52.224Z,88.48
2022-11-29T02:19:57.207Z,88.67
2022-11-29T02:22:55.793Z,88.54
2022-11-29T02:25:35.276Z,88.98
2022-11-29T02:28:42.255Z,88.85
2022-11-29T02:31:49.059Z,89.25
2022-11-29T02:34:47.175Z,89.62
2022-11-29T02:37:26.626Z,89.67
2022-11-29T02:40:36.997Z,89.56
2022-11-29T02:43:25.492Z,89.92
2022-11-29T02:46:17.488Z,89.67
2022-11-29T02:49:23.948Z,89.78
2022-11-29T02:52:00.167Z,89.89
2022-11-29T02:54:47.073Z,89.91
2022-11-29T02:57:29.866Z,89.91
2022-11-29T03:00:06.427Z,90.30
2022-11-29T03:03:04.132Z,89.96
2022-11-29T03:06:01.043Z,89.89
2022-11-29T03:08:48.400Z,89.83
2022-11-29T03:11:40.718Z,89.90
2022-11-29T03:14:32.351Z,89.70
2022-11-29T03:17:45.697Z,90.17
2022-11-29T03:20:23.714Z,90.49
2022-11-29T03:23:12.151Z,90.55
2022-11-29T03:25:45.765Z,90.71
2022-11-29T03:28:22.073Z,90.98
2022-11-29T03:31:34.438Z,91.15
2022-11-29T03:34:10.690Z,91.54
2022-11-29T03:36:58.240Z,91.78
2022-11-29T03:39:46.734Z,91.77
2022-11-29T03:42:32.365Z,92.10
2022-11-29T03:45:08.006Z,91.90
2022-11-29T03:47:50.509Z,92.23
2022-11-29T03:50:29.373Z,91.92
2022-11-29T03:53:14.297Z,91.63
2022-11-29T03:56:02.933Z,91.44
2022-11-29T03:58:42.314Z,91.76
2022-11-29T04:01:23.226Z,91.55
2022-11-29T04:04:11.562Z,91.62
2022-11-29T04:06:47.751Z,91.80
2022-11-29T04:09:36.122Z,91.90
2022-11-29T04:12:24.650Z,92.04
2022-11-29T04:15:35.442Z,91.84
2022-11-29T04:18:25.817Z,92.01
2022-11-29T04:21:08.332Z,92.06
2022-11-29T04:24:15.183Z,92.04
2022-11-29T04:27:20.043Z,91.94
2022-11-29T04:30:15.972Z,92.03
2022-11-29T04:33:33.674Z,91.67
2022-11-29T04:36:16.377Z,92.15
2022-11-29T04:38:46.085Z,91.77
2022-11-29T04:41:43.798Z,92.45
2022-11-29T04:44:51.934Z,92.43
2022-11-29T04:47:31.271Z,92.49
2022-11-29T04:50:13.411Z,92.50
2022-11-29T04:52:54.529Z,92.86
2022-11-29T04:55:50.267Z,92.91
2022-11-29T04:58:38.594Z,93.25
2022-11-29T05:01:45.949Z,93.00
2022-11-29T05:04:27.967Z,93.31
2022-11-29T05:07:18.991Z,93.44
2022-11-29T05:09:57.464Z,93.73
2022-11-29T05:12:39.358Z,93.70
2022-11-29T05:15:30.718Z,93.67
2022-11-29T05:18:28.341Z,93.46
2022-11-29T05:21:18.404Z,93.39
2022-11-29T05:24:19.506Z,93.20
2022-11-29T05:26:59.095Z,93.46
2022-11-29T05:29:43.027Z,93.45
2022-11-29T05:32:37.438Z,93.25
2022-11-29T05:35:25.135Z,93.51
2022-11-29T05:38:20.958Z,93.79
2022-11-29T05:41:18.362Z,93.55
2022-11-29T05:44:26.816Z,93.60
2022-11-29T05:47:05.491Z,94.07
2022-11-29T05:49:38.842Z,93.80
2022-11-29T05:52:38.362Z,93.80
2022-11-29T05:55:27.079Z,93.55
2022-11-29T05:58:15.459Z,93.80
2022-11-29T06:01:09.441Z,93.85
2022-11-29T06:03:47.663Z,94.04
2022-11-29T06:06:29.624Z,93.73
2022-11-29T06:09:02.687Z,93.48
2022-11-29T06:11:59.673Z,93.21
2022-11-29T06:14:53.823Z,93.98
2022-11-29T06:17:38.831Z,93.39
2022-11-29T06:20:33.849Z,93.73
2022-11-29T06:23:22.367Z,93.90
2022-11-29T06:26:02.262Z,93.28
2022-11-29T06:28:37.831Z,93.43
2022-11-29T06:31:19.358Z,93.42
2022-11-29T06:34:11.281Z,93.19
2022-11-29T06:36:44.334Z,93.57
2022-11-29T06:39:15.244Z,93.95
2022-11-29T06:41:45.546Z,93.75
2022-11-29T06:44:15.396Z,93.59
2022-11-29T06:46:50.016Z,94.23
2022-11-29T06:49:34.643Z,94.24
2022-11-29T06:52:22.035Z,93.68
2022-11-29T06:55:14.063Z,93.91
2022-11-29T06:57:59.796Z,94.14
2022-11-29T07:00:49.571Z,93.85
2022-11-29T07:03:31.784Z,94.61
2022-11-29T07:06:10.269Z,94.32
2022-11-29T07:08:41.931Z,94.01
2022-11-29T07:11:15.725Z,94.10
2022-11-29T07:13:46.299Z,93.97
2022-11-29T07:16:26.528Z,94.12
2022-11-29T07:18:59.680Z,93.99
2022-11-29T07:21:47.436Z,94.15
2022-11-29T07:24:47.990Z,93.90
2022-11-29T07:27:29.369Z,93.99
2022-11-29T07:30:14.369Z,93.92
2022-11-29T07:32:59.843Z,94.14
2022-11-29T07:36:05.808Z,94.03
2022-11-29T07:38:48.536Z,93.84
2022-11-29T07:41:25.274Z,93.14
2022-11-29T07:43:55.384Z,93.63
2022-11-29T07:46:26.840Z,93.73
2022-11-29T07:48:57.175Z,93.61
2022-11-29T07:51:27.639Z,93.73
2022-11-29T07:53:57.878Z,94.05
2022-11-29T07:56:27.683Z,93.41
2022-11-29T07:58:58.067Z,94.71
2022-11-29T08:01:28.427Z,94.43
2022-11-29T08:03:58.997Z,94.80
2022-11-29T08:06:29.273Z,95.17
2022-11-29T08:08:59.574Z,94.44
2022-11-29T08:11:30.158Z,94.70
2022-11-29T08:14:02.702Z,94.66
2022-11-29T08:16:33.529Z,94.76
2022-11-29T08:19:03.936Z,94.80
2022-11-29T08:21:33.644Z,94.12
2022-11-29T08:24:04.130Z,94.62
2022-11-29T08:26:35.494Z,94.57
2022-11-29T08:29:05.749Z,93.95
2022-11-29T08:31:36.124Z,94.25
2022-11-29T08:34:10.557Z,94.18
2022-11-29T08:36:41.048Z,94.14
2022-11-29T08:39:11.321Z,94.54
2022-11-29T08:41:41.193Z,94.51
2022-11-29T08:44:11.335Z,94.98
2022-11-29T08:46:59.573Z,94.94
2022-11-29T08:49:29.900Z,94.44
2022-11-29T08:52:17.799Z,93.81
2022-11-29T08:54:48.374Z,94.01
2022-11-29T09:00:10.367Z,94.63
2022-11-29T09:02:41.126Z,94.11
2022-11-29T09:05:12.989Z,93.99
2022-11-29T09:07:43.646Z,93.70
2022-11-29T09:10:14.273Z,93.58
2022-11-29T09:12:45.743Z,93.58
2022-11-29T09:15:16.381Z,92.90
2022-11-29T09:17:46.630Z,92.77
2022-11-29T09:20:16.450Z,92.28
2022-11-29T09:22:46.352Z,92.86
2022-11-29T09:25:16.489Z,93.22
2022-11-29T09:27:46.741Z,92.76
2022-11-29T09:30:22.119Z,92.10
2022-11-29T09:32:53.771Z,92.17
2022-11-29T09:35:23.510Z,91.75
2022-11-29T09:37:53.512Z,91.64
2022-11-29T09:40:27.098Z,91.02
2022-11-29T09:43:28.330Z,90.93
2022-11-29T09:46:04.180Z,90.16
2022-11-29T09:49:12.924Z,90.64
2022-11-29T09:51:57.114Z,90.28
2022-11-29T09:54:37.254Z,90.21
2022-11-29T09:57:10.986Z,90.71
2022-11-29T10:00:05.150Z,89.61
2022-11-29T10:02:39.769Z,89.43
2022-11-29T10:05:33.325Z,89.19
2022-11-29T10:08:25.288Z,89.14
2022-11-29T10:11:01.736Z,88.47
2022-11-29T10:13:37.375Z,88.21
2022-11-29T10:16:22.576Z,87.60
2022-11-29T10:19:12.473Z,87.48
2022-11-29T10:21:46.821Z,86.94
2022-11-29T10:24:21.604Z,86.48
2022-11-29T10:26:51.979Z,86.41
2022-11-29T10:29:23.011Z,86.57
2022-11-29T10:31:57.852Z,86.63
2022-11-29T10:34:32.647Z,86.03
2022-11-29T10:37:04.130Z,85.45
2022-11-29T10:39:54.803Z,85.79
2022-11-29T10:42:46.531Z,85.65
2022-11-29T10:45:36.685Z,85.38
2022-11-29T10:48:16.022Z,84.52
2022-11-29T10:50:49.724Z,83.67
2022-11-29T10:53:25.037Z,83.55
2022-11-29T10:55:55.265Z,83.25
2022-11-29T10:58:28.731Z,83.84
2022-11-29T11:01:04.101Z,82.05
2022-11-29T11:03:47.000Z,83.40
2022-11-29T11:06:25.782Z,82.59
2022-11-29T11:09:31.519Z,82.95
2022-11-29T11:12:09.349Z,80.99
2022-11-29T11:14:40.867Z,81.25
2022-11-29T11:17:18.376Z,79.87
2022-11-29T11:20:07.398Z,80.13
2022-11-29T11:22:41.043Z,79.79
2022-11-29T11:25:39.457Z,79.99
2022-11-29T11:28:24.696Z,79.99
2022-11-29T11:31:04.395Z,79.66
2022-11-29T11:33:47.751Z,79.35
2022-11-29T11:36:25.321Z,79.79
2022-11-29T11:39:10.909Z,79.25
2022-11-29T11:42:03.125Z,78.14
2022-11-29T11:44:47.457Z,79.00
2022-11-29T11:47:25.639Z,78.61
2022-11-29T11:50:04.929Z,79.32
2022-11-29T11:52:55.093Z,78.83
2022-11-29T11:55:48.465Z,78.93
2022-11-29T11:58:23.470Z,79.05
2022-11-29T12:01:04.268Z,78.32
2022-11-29T12:03:53.329Z,76.65
2022-11-29T12:06:29.703Z,77.61
2022-11-29T12:09:19.748Z,76.59
2022-11-29T12:12:02.005Z,75.39
2022-11-29T12:14:55.361Z,75.42
2022-11-29T12:17:43.220Z,76.48
2022-11-29T12:20:29.449Z,77.79
2022-11-29T12:23:15.130Z,76.83
2022-11-29T12:25:51.402Z,76.34
2022-11-29T12:28:21.854Z,76.02
2022-11-29T12:31:16.541Z,76.74
2022-11-29T12:33:49.304Z,77.46
2022-11-29T12:36:46.983Z,76.59
2022-11-29T12:39:20.297Z,76.88
2022-11-29T12:42:31.545Z,77.20
2022-11-29T12:45:23.227Z,75.19
2022-11-29T12:48:15.958Z,74.90
2022-11-29T12:51:07.354Z,76.35
2022-11-29T12:53:40.341Z,76.19
2022-11-29T12:56:28.788Z,76.30
2022-11-29T12:59:07.853Z,74.77
2022-11-29T13:02:23.896Z,75.32
2022-11-29T13:05:00.033Z,75.89
2022-11-29T13:07:54.519Z,75.52
2022-11-29T13:10:39.686Z,75.52
2022-11-29T13:13:15.443Z,75.37
2022-11-29T13:16:07.077Z,75.95
2022-11-29T13:18:46.026Z,74.41
2022-11-29T13:21:27.610Z,72.97
2022-11-29T13:24:12.777Z,73.56
2022-11-29T13:26:44.796Z,73.44
2022-11-29T13:29:18.348Z,74.21
2022-11-29T13:31:49.381Z,73.14
2022-11-29T13:34:44.339Z,73.56
2022-11-29T13:37:39.096Z,73.66
2022-11-29T13:40:26.754Z,73.50
2022-11-29T13:43:33.627Z,73.36
2022-11-29T13:46:34.633Z,72.90
2022-11-29T13:49:05.082Z,72.19
2022-11-29T13:51:42.690Z,72.75
2022-11-29T13:54:34.883Z,72.65
2022-11-29T13:57:09.451Z,72.30
2022-11-29T13:59:47.250Z,70.24
2022-11-29T14:02:32.946Z,70.10
2022-11-29T14:05:03.422Z,68.84
2022-11-29T14:07:34.599Z,69.76
2022-11-29T14:10:28.309Z,69.81
2022-11-29T14:13:01.077Z,70.24
2022-11-29T14:15:33.391Z,70.24
2022-11-29T14:18:10.068Z,70.56
2022-11-29T14:20:45.711Z,69.41
2022-11-29T14:23:17.365Z,69.86
2022-11-29T14:25:56.375Z,70.67
2022-11-29T14:28:26.579Z,70.89
2022-11-29T14:31:04.115Z,70.35
2022-11-29T14:33:40.528Z,69.01
2022-11-29T14:36:51.972Z,70.01
2022-11-29T14:39:45.332Z,69.92
2022-11-29T14:42:28.223Z,69.56
2022-11-29T14:45:02.670Z,70.01
2022-11-29T14:47:49.458Z,67.52
2022-11-29T14:50:41.095Z,67.99
2022-11-29T14:53:32.056Z,68.47
2022-11-29T14:56:31.774Z,67.01
2022-11-29T14:59:42.440Z,65.78
2022-11-29T15:02:52.653Z,66.48
2022-11-29T15:05:43.156Z,66.98
2022-11-29T15:08:28.764Z,67.11
2022-11-29T15:11:34.872Z,66.56
2022-11-29T15:14:09.147Z,67.59
2022-11-29T15:16:59.956Z,65.14
2022-11-29T15:20:02.847Z,66.40
2022-11-29T15:22:49.818Z,66.58
2022-11-29T15:25:29.827Z,68.01
2022-11-29T15:28:02.689Z,67.38
2022-11-29T15:30:43.745Z,67.27
2022-11-29T15:33:27.434Z,67.33
2022-11-29T15:36:05.817Z,67.00
2022-11-29T15:38:48.774Z,65.08
2022-11-29T15:41:28.991Z,65.48
2022-11-29T15:44:01.855Z,65.71
2022-11-29T15:46:35.331Z,65.41
2022-11-29T15:49:26.531Z,65.50
2022-11-29T15:52:06.708Z,65.05
2022-11-29T15:54:44.701Z,64.46
2022-11-29T15:57:19.997Z,65.34
2022-11-29T15:59:59.815Z,65.36
2022-11-29T16:02:36.340Z,64.03
2022-11-29T16:05:12.219Z,63.16
2022-11-29T16:07:43.122Z,64.54
2022-11-29T16:10:19.502Z,64.48
2022-11-29T16:13:01.579Z,65.31
2022-11-29T16:15:42.115Z,67.36
2022-11-29T16:18:20.635Z,66.58
2022-11-29T16:21:05.700Z,68.38
2022-11-29T16:23:38.217Z,69.45
2022-11-29T16:26:33.323Z,70.05
2022-11-29T16:29:03.688Z,67.34
2022-11-29T16:31:39.677Z,67.93
2022-11-29T16:34:10.633Z,67.88
2022-11-29T16:36:40.942Z,67.08
2022-11-29T16:39:25.672Z,67.61
2022-11-29T16:42:14.960Z,67.84
2022-11-29T16:44:48.872Z,66.78
2022-11-29T16:47:24.476Z,66.45
2022-11-29T16:50:04.021Z,67.13
2022-11-29T16:52:35.431Z,66.39
2022-11-29T16:55:05.851Z,65.47
2022-11-29T16:57:36.243Z,63.94
2022-11-29T17:00:25.316Z,64.97
2022-11-29T17:02:55.679Z,64.63
2022-11-29T17:05:26.378Z,64.96
2022-11-29T17:07:57.182Z,65.14
2022-11-29T17:10:27.663Z,65.46
2022-11-29T17:12:57.970Z,65.96
2022-11-29T17:15:28.240Z,66.27
2022-11-29T17:17:58.591Z,65.51
2022-11-29T17:20:28.824Z,67.36
2022-11-29T17:22:59.625Z,67.04
2022-11-29T17:25:29.898Z,66.61
2022-11-29T17:28:00.522Z,65.80
2022-11-29T17:30:31.327Z,66.07
2022-11-29T17:33:02.062Z,67.58
2022-11-29T17:35:32.316Z,68.13
2022-11-29T17:38:02.596Z,67.39
2022-11-29T17:40:32.856Z,67.84
2022-11-29T17:43:03.189Z,68.84
2022-11-29T17:45:33.267Z,69.05
2022-11-29T17:48:03.575Z,68.33
2022-11-29T17:50:33.813Z,68.86
2022-11-29T17:53:03.826Z,69.23
2022-11-29T17:55:33.844Z,67.97
2022-11-29T17:58:04.225Z,68.96
2022-11-29T18:00:34.395Z,68.18
2022-11-29T18:03:04.895Z,68.33
2022-11-29T18:05:35.136Z,68.89
2022-11-29T18:08:07.108Z,69.35
2022-11-29T18:10:37.589Z,69.57
2022-11-29T18:13:07.899Z,69.17
2022-11-29T18:15:38.221Z,68.31
2022-11-29T18:18:08.564Z,67.12
2022-11-29T18:20:38.731Z,67.10
2022-11-29T18:23:08.305Z,66.96
2022-11-29T18:25:39.865Z,66.00
2022-11-29T18:28:12.792Z,65.98
2022-11-29T18:30:43.147Z,67.25
2022-11-29T18:33:13.365Z,66.12
2022-11-29T18:35:43.610Z,66.58
2022-11-29T18:38:16.069Z,67.26
2022-11-29T18:40:47.153Z,65.97
2022-11-29T18:43:18.077Z,66.41
2022-11-29T18:45:48.399Z,66.32
2022-11-29T18:48:18.902Z,66.75
2022-11-29T18:50:49.169Z,66.90
2022-11-29T18:53:19.468Z,67.15
2022-11-29T18:55:49.693Z,67.65
2022-11-29T18:58:19.679Z,67.22
2022-11-29T19:00:50.117Z,67.10
2022-11-29T19:03:20.201Z,65.67
2022-11-29T19:05:55.548Z,66.71
2022-11-29T19:08:26.766Z,66.93
2022-11-29T19:10:56.945Z,67.13
2022-11-29T19:13:27.277Z,67.11
2022-11-29T19:15:58.087Z,67.82
2022-11-29T19:18:28.445Z,67.54
2022-11-29T19:21:16.393Z,67.17
2022-11-29T19:23:47.349Z,66.69
2022-11-29T19:26:17.788Z,66.82
2022-11-29T19:28:49.116Z,65.56
2022-11-29T19:31:22.004Z,65.06
2022-11-29T19:33:53.730Z,66.14
2022-11-29T19:36:27.080Z,65.58
2022-11-29T19:38:58.137Z,64.89
2022-11-29T19:41:29.611Z,65.00
2022-11-29T19:44:02.216Z,64.93
2022-11-29T19:46:41.302Z,64.46
2022-11-29T19:49:12.121Z,64.55
2022-11-29T19:51:42.640Z,63.48
2022-11-29T19:54:13.266Z,64.22
2022-11-29T19:56:43.852Z,64.61
2022-11-29T19:59:14.147Z,65.09
2022-11-29T20:01:44.382Z,65.17
2022-11-29T20:04:18.041Z,64.97
2022-11-29T20:06:48.806Z,64.16
2022-11-29T20:09:19.246Z,64.97
2022-11-29T20:11:49.533Z,64.17
2022-11-29T20:14:19.871Z,65.20
2022-11-29T20:16:50.091Z,65.56
2022-11-29T20:19:19.809Z,66.88
2022-11-29T20:21:50.889Z,66.26
2022-11-29T20:24:21.228Z,65.43
2022-11-29T20:26:51.864Z,66.49
2022-11-29T20:29:23.492Z,66.43
2022-11-29T20:31:53.818Z,66.16
2022-11-29T20:34:24.252Z,66.46
2022-11-29T20:37:17.835Z,67.44
2022-11-29T20:40:12.446Z,67.55
2022-11-29T20:43:07.434Z,67.98
2022-11-29T20:45:38.677Z,67.85
2022-11-29T20:48:24.792Z,67.90
2022-11-29T20:50:59.994Z,67.98
2022-11-29T20:53:44.552Z,68.41
2022-11-29T20:56:15.150Z,68.56
2022-11-29T20:58:45.733Z,68.83
2022-11-29T21:01:16.103Z,69.49
2022-11-29T21:03:46.512Z,69.31
2022-11-29T21:06:16.919Z,69.37
2022-11-29T21:08:47.239Z,69.69
2022-11-29T21:11:17.753Z,69.73
2022-11-29T21:13:48.941Z,70.36
2022-11-29T21:16:19.570Z,70.45
2022-11-29T21:18:50.487Z,70.81
2022-11-29T21:21:37.205Z,71.07
2022-11-29T21:24:07.993Z,71.50
2022-11-29T21:26:51.547Z,71.35
2022-11-29T21:29:25.977Z,71.20
2022-11-29T21:31:56.973Z,71.18
2022-11-29T21:34:27.247Z,71.95
2022-11-29T21:37:01.616Z,72.52
2022-11-29T21:39:36.047Z,72.13
2022-11-29T21:42:06.593Z,72.45
2022-11-29T21:44:36.965Z,70.36
2022-11-29T21:47:07.337Z,68.51
2022-11-29T21:49:37.678Z,71.20
2022-11-29T21:52:08.216Z,71.80
2022-11-29T21:54:38.599Z,72.48
2022-11-29T21:57:08.827Z,73.08
2022-11-29T21:59:38.884Z,73.32
2022-11-29T22:02:10.140Z,73.78
2022-11-29T22:04:40.411Z,74.59
2022-11-29T22:07:11.358Z,74.87
2022-11-29T22:09:41.559Z,75.20
2022-11-29T22:12:32.290Z,75.33
2022-11-29T22:15:02.088Z,75.54
2022-11-29T22:17:31.614Z,75.43
2022-11-29T22:20:01.428Z,75.91
2022-11-29T22:22:31.646Z,76.26
2022-11-29T22:25:01.874Z,76.49
2022-11-29T22:27:32.045Z,76.40
2022-11-29T22:30:02.340Z,76.74
2022-11-29T22:32:33.194Z,76.64
2022-11-29T22:35:03.449Z,77.10
2022-11-29T22:37:33.854Z,76.97
2022-11-29T22:40:04.094Z,76.95
2022-11-29T22:42:34.411Z,77.43
2022-11-29T22:45:05.753Z,77.23
2022-11-29T22:47:36.089Z,77.40
2022-11-29T22:50:07.193Z,77.62
2022-11-29T22:52:37.531Z,77.95
2022-11-29T22:55:08.104Z,78.15
2022-11-29T22:57:38.427Z,77.99
2022-11-29T23:00:09.440Z,78.21
2022-11-29T23:02:39.746Z,78.44
2022-11-29T23:05:09.451Z,77.98
2022-11-29T23:07:39.476Z,78.73
2022-11-29T23:10:10.387Z,78.85
2022-11-29T23:12:40.687Z,78.74
2022-11-29T23:15:11.151Z,78.79
2022-11-29T23:17:41.482Z,78.80
2022-11-29T23:20:12.313Z,78.82
2022-11-29T23:23:01.863Z,79.24
2022-11-29T23:25:32.077Z,79.37
2022-11-29T23:28:02.288Z,79.02
2022-11-29T23:30:32.539Z,79.09
2022-11-29T23:33:03.194Z,79.44
2022-11-29T23:35:33.445Z,79.52
2022-11-29T23:38:03.784Z,79.60
2022-11-29T23:40:34.178Z,79.82
2022-11-29T23:43:04.639Z,79.81
2022-11-29T23:45:37.180Z,80.13
2022-11-29T23:48:07.646Z,80.22
2022-11-29T23:50:37.914Z,80.45
2022-11-29T23:53:08.193Z,80.82
2022-11-29T23:55:38.501Z,81.17
2022-11-29T23:58:09.449Z,81.19
